sensor_id;sensor_type;location;lat;lon;timestamp;P1;durP1;ratioP1;P2;durP2;ratioP2
12958;SDS011;6544;51.666;6.634;2023-02-28T00:01:19;7.50;;;5.20;;
12958;SDS011;6544;51.666;6.634;2023-02-28T00:03:46;7.23;;;5.60;;
12958;SDS011;6544;51.666;6.634;2023-02-28T00:06:13;8.10;;;5.20;;
12958;SDS011;6544;51.666;6.634;2023-02-28T00:08:40;8.23;;;5.27;;
12958;SDS011;6544;51.666;6.634;2023-02-28T00:11:08;7.77;;;5.30;;
12958;SDS011;6544;51.666;6.634;2023-02-28T00:13:38;10.27;;;5.80;;
12958;SDS011;6544;51.666;6.634;2023-02-28T00:16:08;7.33;;;5.20;;
12958;SDS011;6544;51.666;6.634;2023-02-28T00:18:38;8.73;;;5.53;;
12958;SDS011;6544;51.666;6.634;2023-02-28T00:21:05;8.37;;;5.63;;
12958;SDS011;6544;51.666;6.634;2023-02-28T00:23:32;8.03;;;5.47;;
12958;SDS011;6544;51.666;6.634;2023-02-28T00:25:59;8.93;;;5.70;;
12958;SDS011;6544;51.666;6.634;2023-02-28T00:28:26;8.90;;;5.50;;
12958;SDS011;6544;51.666;6.634;2023-02-28T00:30:53;9.50;;;5.67;;
12958;SDS011;6544;51.666;6.634;2023-02-28T00:33:23;9.27;;;5.63;;
12958;SDS011;6544;51.666;6.634;2023-02-28T00:35:50;9.40;;;5.47;;
12958;SDS011;6544;51.666;6.634;2023-02-28T00:38:17;8.30;;;5.37;;
12958;SDS011;6544;51.666;6.634;2023-02-28T00:40:44;10.47;;;5.60;;
12958;SDS011;6544;51.666;6.634;2023-02-28T00:43:11;6.90;;;5.30;;
12958;SDS011;6544;51.666;6.634;2023-02-28T00:45:38;6.83;;;5.37;;
12958;SDS011;6544;51.666;6.634;2023-02-28T00:48:05;7.87;;;5.43;;
12958;SDS011;6544;51.666;6.634;2023-02-28T00:50:33;9.73;;;5.60;;
12958;SDS011;6544;51.666;6.634;2023-02-28T00:53:00;9.50;;;5.57;;
12958;SDS011;6544;51.666;6.634;2023-02-28T00:55:27;6.47;;;5.20;;
12958;SDS011;6544;51.666;6.634;2023-02-28T00:57:54;7.27;;;5.40;;
12958;SDS011;6544;51.666;6.634;2023-02-28T01:00:21;9.53;;;5.20;;
12958;SDS011;6544;51.666;6.634;2023-02-28T01:02:48;7.43;;;5.47;;
12958;SDS011;6544;51.666;6.634;2023-02-28T01:05:14;6.67;;;5.20;;
12958;SDS011;6544;51.666;6.634;2023-02-28T01:07:43;9.50;;;5.53;;
12958;SDS011;6544;51.666;6.634;2023-02-28T01:10:10;6.50;;;5.20;;
12958;SDS011;6544;51.666;6.634;2023-02-28T01:12:37;9.87;;;5.37;;
12958;SDS011;6544;51.666;6.634;2023-02-28T01:15:04;7.47;;;5.10;;
12958;SDS011;6544;51.666;6.634;2023-02-28T01:17:32;8.80;;;5.63;;
12958;SDS011;6544;51.666;6.634;2023-02-28T01:19:59;6.33;;;5.07;;
12958;SDS011;6544;51.666;6.634;2023-02-28T01:22:26;7.33;;;5.13;;
12958;SDS011;6544;51.666;6.634;2023-02-28T01:24:54;6.40;;;5.27;;
12958;SDS011;6544;51.666;6.634;2023-02-28T01:27:21;6.33;;;4.87;;
12958;SDS011;6544;51.666;6.634;2023-02-28T01:29:48;9.30;;;5.30;;
12958;SDS011;6544;51.666;6.634;2023-02-28T01:32:16;7.43;;;5.40;;
12958;SDS011;6544;51.666;6.634;2023-02-28T01:34:43;6.67;;;5.20;;
12958;SDS011;6544;51.666;6.634;2023-02-28T01:37:10;9.33;;;5.33;;
12958;SDS011;6544;51.666;6.634;2023-02-28T01:39:37;6.97;;;5.33;;
12958;SDS011;6544;51.666;6.634;2023-02-28T01:42:05;6.73;;;5.43;;
12958;SDS011;6544;51.666;6.634;2023-02-28T01:47:26;8.83;;;4.80;;
12958;SDS011;6544;51.666;6.634;2023-02-28T01:49:55;7.77;;;5.03;;
12958;SDS011;6544;51.666;6.634;2023-02-28T01:52:23;7.83;;;4.80;;
12958;SDS011;6544;51.666;6.634;2023-02-28T01:54:51;8.27;;;4.90;;
12958;SDS011;6544;51.666;6.634;2023-02-28T01:57:22;7.27;;;4.57;;
12958;SDS011;6544;51.666;6.634;2023-02-28T01:59:54;8.17;;;5.10;;
12958;SDS011;6544;51.666;6.634;2023-02-28T02:02:26;6.53;;;4.47;;
12958;SDS011;6544;51.666;6.634;2023-02-28T02:04:55;7.97;;;4.53;;
12958;SDS011;6544;51.666;6.634;2023-02-28T02:07:26;9.00;;;5.03;;
12958;SDS011;6544;51.666;6.634;2023-02-28T02:10:00;9.73;;;4.97;;
12958;SDS011;6544;51.666;6.634;2023-02-28T02:12:33;9.37;;;4.70;;
12958;SDS011;6544;51.666;6.634;2023-02-28T02:15:11;5.53;;;4.30;;
12958;SDS011;6544;51.666;6.634;2023-02-28T02:17:43;7.93;;;4.40;;
12958;SDS011;6544;51.666;6.634;2023-02-28T02:23:14;6.40;;;4.53;;
12958;SDS011;6544;51.666;6.634;2023-02-28T02:25:56;8.57;;;4.33;;
12958;SDS011;6544;51.666;6.634;2023-02-28T02:28:49;6.47;;;4.33;;
12958;SDS011;6544;51.666;6.634;2023-02-28T02:31:56;6.47;;;4.27;;
12958;SDS011;6544;51.666;6.634;2023-02-28T02:34:49;5.97;;;4.10;;
12958;SDS011;6544;51.666;6.634;2023-02-28T02:37:25;5.63;;;4.57;;
12958;SDS011;6544;51.666;6.634;2023-02-28T02:39:59;5.20;;;3.87;;
12958;SDS011;6544;51.666;6.634;2023-02-28T02:42:35;5.77;;;4.63;;
12958;SDS011;6544;51.666;6.634;2023-02-28T02:45:08;6.03;;;4.60;;
12958;SDS011;6544;51.666;6.634;2023-02-28T02:47:37;7.50;;;5.00;;
12958;SDS011;6544;51.666;6.634;2023-02-28T02:50:08;7.90;;;4.87;;
12958;SDS011;6544;51.666;6.634;2023-02-28T02:52:42;7.40;;;4.97;;
12958;SDS011;6544;51.666;6.634;2023-02-28T02:55:13;6.80;;;4.70;;
12958;SDS011;6544;51.666;6.634;2023-02-28T02:57:43;7.47;;;4.87;;
12958;SDS011;6544;51.666;6.634;2023-02-28T03:00:14;8.63;;;5.13;;
12958;SDS011;6544;51.666;6.634;2023-02-28T03:02:43;6.17;;;5.00;;
12958;SDS011;6544;51.666;6.634;2023-02-28T03:05:14;6.83;;;5.23;;
12958;SDS011;6544;51.666;6.634;2023-02-28T03:07:47;8.07;;;5.40;;
12958;SDS011;6544;51.666;6.634;2023-02-28T03:10:32;8.93;;;5.20;;
12958;SDS011;6544;51.666;6.634;2023-02-28T03:16:12;6.97;;;5.20;;
12958;SDS011;6544;51.666;6.634;2023-02-28T03:18:57;9.00;;;5.40;;
12958;SDS011;6544;51.666;6.634;2023-02-28T03:21:34;12.10;;;5.27;;
12958;SDS011;6544;51.666;6.634;2023-02-28T03:24:06;7.70;;;5.07;;
12958;SDS011;6544;51.666;6.634;2023-02-28T03:26:37;8.00;;;5.23;;
12958;SDS011;6544;51.666;6.634;2023-02-28T03:29:09;5.70;;;4.80;;
12958;SDS011;6544;51.666;6.634;2023-02-28T03:31:43;6.47;;;4.93;;
12958;SDS011;6544;51.666;6.634;2023-02-28T03:34:17;8.67;;;5.30;;
12958;SDS011;6544;51.666;6.634;2023-02-28T03:36:50;6.93;;;5.03;;
12958;SDS011;6544;51.666;6.634;2023-02-28T03:39:21;5.70;;;4.37;;
12958;SDS011;6544;51.666;6.634;2023-02-28T03:41:56;7.13;;;4.60;;
12958;SDS011;6544;51.666;6.634;2023-02-28T03:44:25;7.80;;;4.60;;
12958;SDS011;6544;51.666;6.634;2023-02-28T03:46:59;6.97;;;4.83;;
12958;SDS011;6544;51.666;6.634;2023-02-28T03:49:30;6.27;;;4.37;;
12958;SDS011;6544;51.666;6.634;2023-02-28T03:52:02;6.57;;;4.50;;
12958;SDS011;6544;51.666;6.634;2023-02-28T03:54:33;9.47;;;4.87;;
12958;SDS011;6544;51.666;6.634;2023-02-28T03:57:05;6.50;;;4.50;;
12958;SDS011;6544;51.666;6.634;2023-02-28T03:59:39;6.37;;;4.67;;
12958;SDS011;6544;51.666;6.634;2023-02-28T04:02:09;6.47;;;4.83;;
12958;SDS011;6544;51.666;6.634;2023-02-28T04:04:36;6.57;;;4.87;;
12958;SDS011;6544;51.666;6.634;2023-02-28T04:07:06;6.07;;;4.70;;
12958;SDS011;6544;51.666;6.634;2023-02-28T04:09:34;5.93;;;4.40;;
12958;SDS011;6544;51.666;6.634;2023-02-28T04:12:01;6.67;;;4.80;;
12958;SDS011;6544;51.666;6.634;2023-02-28T04:14:28;6.07;;;4.50;;
12958;SDS011;6544;51.666;6.634;2023-02-28T04:16:55;5.70;;;4.33;;
12958;SDS011;6544;51.666;6.634;2023-02-28T04:19:22;8.03;;;4.80;;
12958;SDS011;6544;51.666;6.634;2023-02-28T04:21:50;6.83;;;4.40;;
12958;SDS011;6544;51.666;6.634;2023-02-28T04:24:20;12.47;;;6.13;;
12958;SDS011;6544;51.666;6.634;2023-02-28T04:26:50;11.73;;;6.50;;
12958;SDS011;6544;51.666;6.634;2023-02-28T04:29:19;8.33;;;5.60;;
12958;SDS011;6544;51.666;6.634;2023-02-28T04:31:47;6.00;;;5.00;;
12958;SDS011;6544;51.666;6.634;2023-02-28T04:34:13;6.80;;;5.03;;
12958;SDS011;6544;51.666;6.634;2023-02-28T04:36:41;6.60;;;4.83;;
12958;SDS011;6544;51.666;6.634;2023-02-28T04:39:08;10.43;;;5.00;;
12958;SDS011;6544;51.666;6.634;2023-02-28T04:41:37;6.30;;;4.53;;
12958;SDS011;6544;51.666;6.634;2023-02-28T04:44:04;7.47;;;4.77;;
12958;SDS011;6544;51.666;6.634;2023-02-28T04:46:31;6.13;;;4.70;;
12958;SDS011;6544;51.666;6.634;2023-02-28T04:48:57;8.27;;;5.10;;
12958;SDS011;6544;51.666;6.634;2023-02-28T04:51:24;5.53;;;4.53;;
12958;SDS011;6544;51.666;6.634;2023-02-28T04:53:53;7.53;;;5.27;;
12958;SDS011;6544;51.666;6.634;2023-02-28T04:56:20;9.13;;;4.80;;
12958;SDS011;6544;51.666;6.634;2023-02-28T04:58:48;5.90;;;4.47;;
12958;SDS011;6544;51.666;6.634;2023-02-28T05:01:17;7.53;;;4.80;;
12958;SDS011;6544;51.666;6.634;2023-02-28T05:03:46;7.87;;;4.63;;
12958;SDS011;6544;51.666;6.634;2023-02-28T05:06:13;6.63;;;4.97;;
12958;SDS011;6544;51.666;6.634;2023-02-28T05:08:40;7.27;;;4.50;;
12958;SDS011;6544;51.666;6.634;2023-02-28T05:11:12;7.50;;;4.50;;
12958;SDS011;6544;51.666;6.634;2023-02-28T05:13:41;6.87;;;4.63;;
12958;SDS011;6544;51.666;6.634;2023-02-28T05:16:10;6.90;;;5.00;;
12958;SDS011;6544;51.666;6.634;2023-02-28T05:18:37;7.00;;;4.37;;
12958;SDS011;6544;51.666;6.634;2023-02-28T05:21:04;7.33;;;4.87;;
12958;SDS011;6544;51.666;6.634;2023-02-28T05:23:31;5.87;;;4.63;;
12958;SDS011;6544;51.666;6.634;2023-02-28T05:25:58;7.40;;;4.97;;
12958;SDS011;6544;51.666;6.634;2023-02-28T05:28:25;6.37;;;4.57;;
12958;SDS011;6544;51.666;6.634;2023-02-28T05:30:52;6.70;;;4.93;;
12958;SDS011;6544;51.666;6.634;2023-02-28T05:33:20;7.07;;;4.70;;
12958;SDS011;6544;51.666;6.634;2023-02-28T05:35:47;6.33;;;4.30;;
12958;SDS011;6544;51.666;6.634;2023-02-28T05:38:14;7.93;;;4.77;;
12958;SDS011;6544;51.666;6.634;2023-02-28T05:40:41;9.67;;;5.00;;
12958;SDS011;6544;51.666;6.634;2023-02-28T05:43:09;8.13;;;4.87;;
12958;SDS011;6544;51.666;6.634;2023-02-28T05:45:37;5.93;;;4.83;;
12958;SDS011;6544;51.666;6.634;2023-02-28T05:48:05;6.17;;;4.70;;
12958;SDS011;6544;51.666;6.634;2023-02-28T05:50:33;7.57;;;4.40;;
12958;SDS011;6544;51.666;6.634;2023-02-28T05:53:00;7.33;;;4.50;;
12958;SDS011;6544;51.666;6.634;2023-02-28T05:55:27;8.50;;;4.70;;
12958;SDS011;6544;51.666;6.634;2023-02-28T05:57:54;6.13;;;4.53;;
12958;SDS011;6544;51.666;6.634;2023-02-28T06:00:21;8.90;;;5.20;;
12958;SDS011;6544;51.666;6.634;2023-02-28T06:02:49;5.17;;;4.53;;
12958;SDS011;6544;51.666;6.634;2023-02-28T06:05:17;6.10;;;4.60;;
12958;SDS011;6544;51.666;6.634;2023-02-28T06:07:45;7.00;;;5.00;;
12958;SDS011;6544;51.666;6.634;2023-02-28T06:10:12;7.77;;;5.30;;
12958;SDS011;6544;51.666;6.634;2023-02-28T06:12:40;7.43;;;4.80;;
12958;SDS011;6544;51.666;6.634;2023-02-28T06:15:09;6.50;;;4.97;;
12958;SDS011;6544;51.666;6.634;2023-02-28T06:17:38;8.47;;;4.60;;
12958;SDS011;6544;51.666;6.634;2023-02-28T06:20:06;7.40;;;4.63;;
12958;SDS011;6544;51.666;6.634;2023-02-28T06:22:34;6.40;;;5.00;;
12958;SDS011;6544;51.666;6.634;2023-02-28T06:25:03;8.67;;;5.03;;
12958;SDS011;6544;51.666;6.634;2023-02-28T06:27:30;7.40;;;5.07;;
12958;SDS011;6544;51.666;6.634;2023-02-28T06:29:57;6.63;;;4.60;;
12958;SDS011;6544;51.666;6.634;2023-02-28T06:32:24;7.80;;;5.00;;
12958;SDS011;6544;51.666;6.634;2023-02-28T06:34:51;12.43;;;4.80;;
12958;SDS011;6544;51.666;6.634;2023-02-28T06:37:18;8.10;;;4.53;;
12958;SDS011;6544;51.666;6.634;2023-02-28T06:39:45;5.67;;;4.60;;
12958;SDS011;6544;51.666;6.634;2023-02-28T06:42:13;6.93;;;4.60;;
12958;SDS011;6544;51.666;6.634;2023-02-28T06:44:40;6.23;;;5.00;;
12958;SDS011;6544;51.666;6.634;2023-02-28T06:47:08;6.40;;;4.83;;
12958;SDS011;6544;51.666;6.634;2023-02-28T06:49:35;10.57;;;5.00;;
12958;SDS011;6544;51.666;6.634;2023-02-28T06:52:04;14.17;;;4.80;;
12958;SDS011;6544;51.666;6.634;2023-02-28T06:54:31;13.17;;;5.27;;
12958;SDS011;6544;51.666;6.634;2023-02-28T06:56:58;10.27;;;5.03;;
12958;SDS011;6544;51.666;6.634;2023-02-28T06:59:26;8.70;;;5.20;;
12958;SDS011;6544;51.666;6.634;2023-02-28T07:01:53;11.47;;;5.10;;
12958;SDS011;6544;51.666;6.634;2023-02-28T07:04:20;8.57;;;5.70;;
12958;SDS011;6544;51.666;6.634;2023-02-28T07:06:47;16.13;;;5.80;;
12958;SDS011;6544;51.666;6.634;2023-02-28T07:09:14;9.17;;;5.60;;
12958;SDS011;6544;51.666;6.634;2023-02-28T07:11:41;7.50;;;5.77;;
12958;SDS011;6544;51.666;6.634;2023-02-28T07:14:09;9.17;;;5.70;;
12958;SDS011;6544;51.666;6.634;2023-02-28T07:16:37;11.60;;;6.07;;
12958;SDS011;6544;51.666;6.634;2023-02-28T07:19:04;12.73;;;6.57;;
12958;SDS011;6544;51.666;6.634;2023-02-28T07:21:31;9.20;;;6.30;;
12958;SDS011;6544;51.666;6.634;2023-02-28T07:23:58;10.37;;;6.40;;
12958;SDS011;6544;51.666;6.634;2023-02-28T07:26:25;7.50;;;6.37;;
12958;SDS011;6544;51.666;6.634;2023-02-28T07:28:52;7.70;;;6.17;;
12958;SDS011;6544;51.666;6.634;2023-02-28T07:31:19;8.13;;;5.90;;
12958;SDS011;6544;51.666;6.634;2023-02-28T07:33:47;8.53;;;6.43;;
12958;SDS011;6544;51.666;6.634;2023-02-28T07:36:15;10.57;;;6.00;;
12958;SDS011;6544;51.666;6.634;2023-02-28T07:38:44;12.13;;;5.80;;
12958;SDS011;6544;51.666;6.634;2023-02-28T07:41:13;6.87;;;5.00;;
12958;SDS011;6544;51.666;6.634;2023-02-28T07:43:40;10.17;;;4.90;;
12958;SDS011;6544;51.666;6.634;2023-02-28T07:46:08;9.90;;;4.87;;
12958;SDS011;6544;51.666;6.634;2023-02-28T07:48:37;7.00;;;4.47;;
12958;SDS011;6544;51.666;6.634;2023-02-28T07:51:05;7.30;;;4.47;;
12958;SDS011;6544;51.666;6.634;2023-02-28T07:53:32;6.23;;;4.77;;
12958;SDS011;6544;51.666;6.634;2023-02-28T07:55:59;7.50;;;4.67;;
12958;SDS011;6544;51.666;6.634;2023-02-28T07:58:28;7.90;;;4.77;;
12958;SDS011;6544;51.666;6.634;2023-02-28T08:00:56;5.80;;;4.30;;
12958;SDS011;6544;51.666;6.634;2023-02-28T08:03:23;7.87;;;4.80;;
12958;SDS011;6544;51.666;6.634;2023-02-28T08:05:50;6.73;;;4.50;;
12958;SDS011;6544;51.666;6.634;2023-02-28T08:08:20;7.80;;;4.80;;
12958;SDS011;6544;51.666;6.634;2023-02-28T08:10:46;7.23;;;4.70;;
12958;SDS011;6544;51.666;6.634;2023-02-28T08:13:13;7.47;;;4.33;;
12958;SDS011;6544;51.666;6.634;2023-02-28T08:15:40;6.30;;;4.60;;
12958;SDS011;6544;51.666;6.634;2023-02-28T08:18:08;5.20;;;4.60;;
12958;SDS011;6544;51.666;6.634;2023-02-28T08:20:35;6.97;;;4.83;;
12958;SDS011;6544;51.666;6.634;2023-02-28T08:23:02;11.00;;;4.73;;
12958;SDS011;6544;51.666;6.634;2023-02-28T08:25:31;5.43;;;4.43;;
12958;SDS011;6544;51.666;6.634;2023-02-28T08:27:57;8.17;;;4.10;;
12958;SDS011;6544;51.666;6.634;2023-02-28T08:30:24;6.63;;;3.70;;
12958;SDS011;6544;51.666;6.634;2023-02-28T08:32:51;6.13;;;3.90;;
12958;SDS011;6544;51.666;6.634;2023-02-28T08:35:19;5.57;;;3.87;;
12958;SDS011;6544;51.666;6.634;2023-02-28T08:37:47;5.57;;;3.47;;
12958;SDS011;6544;51.666;6.634;2023-02-28T08:40:14;6.23;;;3.47;;
12958;SDS011;6544;51.666;6.634;2023-02-28T08:42:44;4.23;;;3.47;;
12958;SDS011;6544;51.666;6.634;2023-02-28T08:45:12;5.57;;;3.40;;
12958;SDS011;6544;51.666;6.634;2023-02-28T08:47:39;3.93;;;3.30;;
12958;SDS011;6544;51.666;6.634;2023-02-28T08:50:07;6.43;;;3.70;;
12958;SDS011;6544;51.666;6.634;2023-02-28T08:52:35;3.73;;;3.10;;
12958;SDS011;6544;51.666;6.634;2023-02-28T08:55:03;5.13;;;3.33;;
12958;SDS011;6544;51.666;6.634;2023-02-28T08:57:30;4.33;;;3.50;;
12958;SDS011;6544;51.666;6.634;2023-02-28T08:59:59;4.30;;;3.20;;
12958;SDS011;6544;51.666;6.634;2023-02-28T09:02:29;6.17;;;2.90;;
12958;SDS011;6544;51.666;6.634;2023-02-28T09:04:56;4.73;;;3.37;;
12958;SDS011;6544;51.666;6.634;2023-02-28T09:07:23;4.67;;;3.40;;
12958;SDS011;6544;51.666;6.634;2023-02-28T09:09:50;4.63;;;3.10;;
12958;SDS011;6544;51.666;6.634;2023-02-28T09:12:19;6.33;;;3.20;;
12958;SDS011;6544;51.666;6.634;2023-02-28T09:14:47;4.30;;;3.23;;
12958;SDS011;6544;51.666;6.634;2023-02-28T09:17:15;5.03;;;3.17;;
12958;SDS011;6544;51.666;6.634;2023-02-28T09:19:42;4.50;;;2.67;;
12958;SDS011;6544;51.666;6.634;2023-02-28T09:22:09;6.47;;;2.80;;
12958;SDS011;6544;51.666;6.634;2023-02-28T09:24:37;2.73;;;2.50;;
12958;SDS011;6544;51.666;6.634;2023-02-28T09:27:04;5.73;;;2.90;;
12958;SDS011;6544;51.666;6.634;2023-02-28T09:29:31;3.80;;;2.90;;
12958;SDS011;6544;51.666;6.634;2023-02-28T09:31:59;4.67;;;2.60;;
12958;SDS011;6544;51.666;6.634;2023-02-28T09:34:28;3.10;;;2.40;;
12958;SDS011;6544;51.666;6.634;2023-02-28T09:36:56;2.73;;;2.47;;
12958;SDS011;6544;51.666;6.634;2023-02-28T09:39:23;2.70;;;2.40;;
12958;SDS011;6544;51.666;6.634;2023-02-28T09:41:52;4.10;;;2.43;;
12958;SDS011;6544;51.666;6.634;2023-02-28T09:44:22;2.90;;;2.40;;
12958;SDS011;6544;51.666;6.634;2023-02-28T09:46:55;3.83;;;2.50;;
12958;SDS011;6544;51.666;6.634;2023-02-28T09:49:27;3.83;;;2.90;;
12958;SDS011;6544;51.666;6.634;2023-02-28T09:52:02;4.33;;;2.17;;
12958;SDS011;6544;51.666;6.634;2023-02-28T09:54:34;3.53;;;2.80;;
12958;SDS011;6544;51.666;6.634;2023-02-28T09:57:04;3.60;;;2.90;;
12958;SDS011;6544;51.666;6.634;2023-02-28T09:59:39;5.37;;;2.67;;
12958;SDS011;6544;51.666;6.634;2023-02-28T10:02:21;3.80;;;2.47;;
12958;SDS011;6544;51.666;6.634;2023-02-28T10:05:06;4.57;;;2.70;;
12958;SDS011;6544;51.666;6.634;2023-02-28T10:07:47;6.43;;;3.80;;
12958;SDS011;6544;51.666;6.634;2023-02-28T10:10:27;3.07;;;2.30;;
12958;SDS011;6544;51.666;6.634;2023-02-28T10:12:59;3.10;;;2.20;;
12958;SDS011;6544;51.666;6.634;2023-02-28T10:15:29;2.67;;;2.27;;
12958;SDS011;6544;51.666;6.634;2023-02-28T10:17:59;3.83;;;2.27;;
12958;SDS011;6544;51.666;6.634;2023-02-28T10:20:31;4.53;;;2.37;;
12958;SDS011;6544;51.666;6.634;2023-02-28T10:23:03;2.90;;;2.60;;
12958;SDS011;6544;51.666;6.634;2023-02-28T10:25:38;3.10;;;2.30;;
12958;SDS011;6544;51.666;6.634;2023-02-28T10:28:09;2.87;;;2.37;;
12958;SDS011;6544;51.666;6.634;2023-02-28T10:30:37;4.23;;;2.10;;
12958;SDS011;6544;51.666;6.634;2023-02-28T10:33:10;4.43;;;2.00;;
12958;SDS011;6544;51.666;6.634;2023-02-28T10:35:50;2.27;;;2.00;;
12958;SDS011;6544;51.666;6.634;2023-02-28T10:38:19;2.77;;;2.03;;
12958;SDS011;6544;51.666;6.634;2023-02-28T10:40:47;2.90;;;1.63;;
12958;SDS011;6544;51.666;6.634;2023-02-28T10:43:19;4.53;;;2.30;;
12958;SDS011;6544;51.666;6.634;2023-02-28T10:45:57;3.20;;;2.20;;
12958;SDS011;6544;51.666;6.634;2023-02-28T10:48:29;3.40;;;2.30;;
12958;SDS011;6544;51.666;6.634;2023-02-28T10:51:00;2.33;;;2.10;;
12958;SDS011;6544;51.666;6.634;2023-02-28T10:53:31;2.93;;;2.30;;
12958;SDS011;6544;51.666;6.634;2023-02-28T10:56:02;2.80;;;2.00;;
12958;SDS011;6544;51.666;6.634;2023-02-28T10:58:33;2.50;;;2.10;;
12958;SDS011;6544;51.666;6.634;2023-02-28T11:01:13;5.43;;;2.10;;
12958;SDS011;6544;51.666;6.634;2023-02-28T11:03:41;2.13;;;1.93;;
12958;SDS011;6544;51.666;6.634;2023-02-28T11:06:12;2.87;;;2.03;;
12958;SDS011;6544;51.666;6.634;2023-02-28T11:08:46;3.30;;;2.10;;
12958;SDS011;6544;51.666;6.634;2023-02-28T11:11:15;4.30;;;1.93;;
12958;SDS011;6544;51.666;6.634;2023-02-28T11:13:43;2.70;;;2.27;;
12958;SDS011;6544;51.666;6.634;2023-02-28T11:16:13;2.53;;;2.00;;
12958;SDS011;6544;51.666;6.634;2023-02-28T11:18:55;3.87;;;2.00;;
12958;SDS011;6544;51.666;6.634;2023-02-28T11:21:27;2.50;;;2.07;;
12958;SDS011;6544;51.666;6.634;2023-02-28T11:23:58;3.08;;;2.20;;
12958;SDS011;6544;51.666;6.634;2023-02-28T11:26:35;3.47;;;2.03;;
12958;SDS011;6544;51.666;6.634;2023-02-28T11:29:09;3.92;;;2.67;;
12958;SDS011;6544;51.666;6.634;2023-02-28T11:31:45;2.80;;;2.30;;
12958;SDS011;6544;51.666;6.634;2023-02-28T11:34:29;3.65;;;2.17;;
12958;SDS011;6544;51.666;6.634;2023-02-28T11:36:59;3.70;;;2.30;;
12958;SDS011;6544;51.666;6.634;2023-02-28T11:39:29;2.20;;;2.00;;
12958;SDS011;6544;51.666;6.634;2023-02-28T11:42:04;3.00;;;2.30;;
12958;SDS011;6544;51.666;6.634;2023-02-28T11:44:48;3.45;;;2.10;;
12958;SDS011;6544;51.666;6.634;2023-02-28T11:47:26;3.15;;;2.22;;
12958;SDS011;6544;51.666;6.634;2023-02-28T11:50:14;3.30;;;2.25;;
12958;SDS011;6544;51.666;6.634;2023-02-28T11:52:50;2.45;;;2.22;;
12958;SDS011;6544;51.666;6.634;2023-02-28T11:55:21;3.42;;;2.60;;
12958;SDS011;6544;51.666;6.634;2023-02-28T11:58:07;2.95;;;2.50;;
12958;SDS011;6544;51.666;6.634;2023-02-28T12:00:47;2.85;;;2.55;;
12958;SDS011;6544;51.666;6.634;2023-02-28T12:03:30;4.18;;;2.53;;
12958;SDS011;6544;51.666;6.634;2023-02-28T12:06:09;2.92;;;2.58;;
12958;SDS011;6544;51.666;6.634;2023-02-28T12:08:56;4.72;;;2.90;;
12958;SDS011;6544;51.666;6.634;2023-02-28T12:11:43;3.05;;;2.70;;
12958;SDS011;6544;51.666;6.634;2023-02-28T12:16:55;14.88;;;5.22;;
12958;SDS011;6544;51.666;6.634;2023-02-28T12:19:38;5.53;;;3.40;;
12958;SDS011;6544;51.666;6.634;2023-02-28T12:22:28;11.63;;;3.70;;
12958;SDS011;6544;51.666;6.634;2023-02-28T12:27:54;6.00;;;3.00;;
12958;SDS011;6544;51.666;6.634;2023-02-28T12:30:22;13.45;;;3.28;;
12958;SDS011;6544;51.666;6.634;2023-02-28T12:32:52;17.25;;;3.65;;
12958;SDS011;6544;51.666;6.634;2023-02-28T12:35:22;27.67;;;4.28;;
12958;SDS011;6544;51.666;6.634;2023-02-28T12:37:54;12.90;;;3.60;;
12958;SDS011;6544;51.666;6.634;2023-02-28T12:40:41;8.63;;;2.80;;
12958;SDS011;6544;51.666;6.634;2023-02-28T12:43:11;4.72;;;2.53;;
12958;SDS011;6544;51.666;6.634;2023-02-28T12:45:41;3.95;;;2.80;;
12958;SDS011;6544;51.666;6.634;2023-02-28T12:48:14;10.15;;;3.65;;
12958;SDS011;6544;51.666;6.634;2023-02-28T12:50:46;3.45;;;2.47;;
12958;SDS011;6544;51.666;6.634;2023-02-28T12:53:15;4.18;;;2.60;;
12958;SDS011;6544;51.666;6.634;2023-02-28T12:55:54;17.48;;;3.97;;
12958;SDS011;6544;51.666;6.634;2023-02-28T12:58:31;9.27;;;3.42;;
12958;SDS011;6544;51.666;6.634;2023-02-28T13:01:13;3.17;;;2.40;;
12958;SDS011;6544;51.666;6.634;2023-02-28T13:07:16;2.80;;;2.30;;
12958;SDS011;6544;51.666;6.634;2023-02-28T13:10:03;5.65;;;2.83;;
12958;SDS011;6544;51.666;6.634;2023-02-28T13:12:34;3.38;;;2.70;;
12958;SDS011;6544;51.666;6.634;2023-02-28T13:15:04;5.55;;;4.68;;
12958;SDS011;6544;51.666;6.634;2023-02-28T13:17:37;2.95;;;2.60;;
12958;SDS011;6544;51.666;6.634;2023-02-28T13:20:14;64.35;;;9.35;;
12958;SDS011;6544;51.666;6.634;2023-02-28T13:22:43;27.95;;;5.22;;
12958;SDS011;6544;51.666;6.634;2023-02-28T13:34:39;8.00;;;2.70;;
12958;SDS011;6544;51.666;6.634;2023-02-28T13:40:22;3.22;;;2.50;;
12958;SDS011;6544;51.666;6.634;2023-02-28T13:42:54;2.83;;;2.40;;
12958;SDS011;6544;51.666;6.634;2023-02-28T13:45:23;3.88;;;2.63;;
12958;SDS011;6544;51.666;6.634;2023-02-28T13:47:56;2.97;;;2.40;;
12958;SDS011;6544;51.666;6.634;2023-02-28T13:50:32;3.42;;;2.60;;
12958;SDS011;6544;51.666;6.634;2023-02-28T13:56:04;3.45;;;2.30;;
12958;SDS011;6544;51.666;6.634;2023-02-28T13:58:46;3.63;;;2.65;;
12958;SDS011;6544;51.666;6.634;2023-02-28T14:01:31;3.40;;;2.50;;
12958;SDS011;6544;51.666;6.634;2023-02-28T14:07:22;3.63;;;2.50;;
12958;SDS011;6544;51.666;6.634;2023-02-28T14:09:57;2.58;;;2.28;;
12958;SDS011;6544;51.666;6.634;2023-02-28T14:15:40;3.95;;;2.30;;
12958;SDS011;6544;51.666;6.634;2023-02-28T14:18:14;3.85;;;2.45;;
12958;SDS011;6544;51.666;6.634;2023-02-28T14:20:46;3.47;;;2.50;;
12958;SDS011;6544;51.666;6.634;2023-02-28T14:23:23;3.15;;;2.50;;
12958;SDS011;6544;51.666;6.634;2023-02-28T14:26:02;4.93;;;2.47;;
12958;SDS011;6544;51.666;6.634;2023-02-28T14:28:43;3.55;;;2.47;;
12958;SDS011;6544;51.666;6.634;2023-02-28T14:31:23;5.35;;;2.60;;
12958;SDS011;6544;51.666;6.634;2023-02-28T14:36:58;4.03;;;2.80;;
12958;SDS011;6544;51.666;6.634;2023-02-28T14:39:29;2.95;;;2.50;;
12958;SDS011;6544;51.666;6.634;2023-02-28T14:41:57;2.72;;;2.50;;
12958;SDS011;6544;51.666;6.634;2023-02-28T14:44:28;3.38;;;2.50;;
12958;SDS011;6544;51.666;6.634;2023-02-28T14:46:55;4.57;;;2.65;;
12958;SDS011;6544;51.666;6.634;2023-02-28T14:49:25;3.47;;;2.60;;
12958;SDS011;6544;51.666;6.634;2023-02-28T14:52:01;3.22;;;2.67;;
12958;SDS011;6544;51.666;6.634;2023-02-28T14:54:33;5.20;;;2.55;;
12958;SDS011;6544;51.666;6.634;2023-02-28T14:57:00;3.25;;;2.38;;
12958;SDS011;6544;51.666;6.634;2023-02-28T14:59:28;3.33;;;2.90;;
12958;SDS011;6544;51.666;6.634;2023-02-28T15:04:43;3.27;;;2.90;;
12958;SDS011;6544;51.666;6.634;2023-02-28T15:07:18;2.95;;;2.50;;
12958;SDS011;6544;51.666;6.634;2023-02-28T15:09:46;8.40;;;3.10;;
12958;SDS011;6544;51.666;6.634;2023-02-28T15:12:13;4.03;;;2.92;;
12958;SDS011;6544;51.666;6.634;2023-02-28T15:14:41;3.30;;;2.65;;
12958;SDS011;6544;51.666;6.634;2023-02-28T15:17:22;3.80;;;2.63;;
12958;SDS011;6544;51.666;6.634;2023-02-28T15:19:51;4.67;;;3.00;;
12958;SDS011;6544;51.666;6.634;2023-02-28T15:22:19;3.70;;;3.00;;
12958;SDS011;6544;51.666;6.634;2023-02-28T15:24:55;3.83;;;2.80;;
12958;SDS011;6544;51.666;6.634;2023-02-28T15:27:23;4.70;;;2.80;;
12958;SDS011;6544;51.666;6.634;2023-02-28T15:29:53;3.15;;;2.85;;
12958;SDS011;6544;51.666;6.634;2023-02-28T15:32:26;3.70;;;3.07;;
12958;SDS011;6544;51.666;6.634;2023-02-28T15:34:54;4.17;;;3.10;;
12958;SDS011;6544;51.666;6.634;2023-02-28T15:37:27;3.87;;;3.10;;
12958;SDS011;6544;51.666;6.634;2023-02-28T15:40:10;4.17;;;3.10;;
12958;SDS011;6544;51.666;6.634;2023-02-28T15:42:40;3.57;;;3.10;;
12958;SDS011;6544;51.666;6.634;2023-02-28T15:47:54;4.27;;;3.10;;
12958;SDS011;6544;51.666;6.634;2023-02-28T15:50:21;4.03;;;3.20;;
12958;SDS011;6544;51.666;6.634;2023-02-28T15:52:48;3.80;;;3.17;;
12958;SDS011;6544;51.666;6.634;2023-02-28T15:55:18;5.57;;;3.20;;
12958;SDS011;6544;51.666;6.634;2023-02-28T15:57:47;4.33;;;3.17;;
12958;SDS011;6544;51.666;6.634;2023-02-28T16:00:18;3.80;;;3.30;;
12958;SDS011;6544;51.666;6.634;2023-02-28T16:02:47;3.63;;;3.17;;
12958;SDS011;6544;51.666;6.634;2023-02-28T16:05:21;4.03;;;3.60;;
12958;SDS011;6544;51.666;6.634;2023-02-28T16:07:55;4.80;;;3.50;;
12958;SDS011;6544;51.666;6.634;2023-02-28T16:10:25;5.37;;;3.40;;